createdAt,value
2018-12-19T00:03:12.508Z,7.35
2018-12-19T00:05:39.983Z,7.50
2018-12-19T00:13:02.247Z,7.75
2018-12-19T00:15:30.361Z,8.00
2018-12-19T00:44:55.636Z,10.95
2018-12-19T00:47:23.044Z,7.20
2018-12-19T00:49:50.474Z,6.95
2018-12-19T00:59:39.894Z,7.03
2018-12-19T01:02:07.304Z,7.85
2018-12-19T01:11:56.226Z,7.07
2018-12-19T01:36:26.821Z,7.63
2018-12-19T01:38:54.229Z,7.53
2018-12-19T01:41:21.652Z,7.47
2018-12-19T01:43:49.446Z,6.75
2018-12-19T01:46:16.851Z,8.05
2018-12-19T01:48:44.287Z,6.87
2018-12-19T01:51:11.700Z,6.00
2018-12-19T01:53:39.271Z,6.55
2018-12-19T01:56:06.761Z,6.90
2018-12-19T01:58:34.165Z,7.20
2018-12-19T02:01:01.586Z,6.70
2018-12-19T02:03:29.000Z,7.07
2018-12-19T02:05:56.804Z,6.00
2018-12-19T02:08:24.252Z,7.00
2018-12-19T02:10:51.679Z,5.80
2018-12-19T02:13:19.265Z,7.03
2018-12-19T02:15:46.659Z,6.97
2018-12-19T02:18:14.075Z,7.15
2018-12-19T02:20:41.472Z,6.40
2018-12-19T02:23:09.503Z,7.70
2018-12-19T02:25:36.918Z,5.28
2018-12-19T02:28:04.655Z,6.37
2018-12-19T02:30:32.064Z,8.00
2018-12-19T02:32:59.547Z,7.65
2018-12-19T02:35:27.644Z,7.25
2018-12-19T02:37:56.000Z,8.00
2018-12-19T02:40:23.404Z,7.72
2018-12-19T02:42:50.839Z,7.00
2018-12-19T02:45:18.255Z,8.30
2018-12-19T02:47:45.659Z,6.93
2018-12-19T02:50:13.096Z,6.65
2018-12-19T02:52:40.546Z,8.13
2018-12-19T02:55:07.931Z,6.40
2018-12-19T02:57:35.403Z,6.80
2018-12-19T03:00:02.796Z,7.28
2018-12-19T03:02:30.355Z,5.95
2018-12-19T03:04:57.796Z,6.95
2018-12-19T03:07:25.196Z,6.87
2018-12-19T03:09:52.625Z,7.72
2018-12-19T03:12:20.635Z,6.40
2018-12-19T03:14:48.050Z,7.15
2018-12-19T03:17:15.461Z,7.05
2018-12-19T03:19:42.862Z,7.47
2018-12-19T03:22:10.315Z,7.43
2018-12-19T03:24:37.712Z,5.22
2018-12-19T03:27:05.151Z,6.25
2018-12-19T03:29:32.546Z,4.87
2018-12-19T03:32:00.020Z,6.37
2018-12-19T03:34:27.415Z,4.95
2018-12-19T03:36:55.869Z,6.22
2018-12-19T03:39:23.266Z,6.20
2018-12-19T03:41:51.028Z,6.37
2018-12-19T03:44:18.439Z,5.70
2018-12-19T03:46:45.846Z,6.20
2018-12-19T03:49:13.374Z,6.65
2018-12-19T03:51:40.778Z,5.28
2018-12-19T03:54:08.174Z,5.10
2018-12-19T03:56:35.733Z,4.85
2018-12-19T03:59:03.128Z,6.65
2018-12-19T04:01:30.530Z,5.97
2018-12-19T04:03:57.949Z,6.57
2018-12-19T04:06:25.703Z,7.32
2018-12-19T04:08:53.124Z,6.90
2018-12-19T04:11:20.559Z,7.43
2018-12-19T04:13:48.048Z,7.70
2018-12-19T04:16:15.457Z,8.85
2018-12-19T04:18:42.870Z,6.97
2018-12-19T04:21:10.526Z,5.82
2018-12-19T04:23:37.925Z,6.05
2018-12-19T04:26:05.322Z,7.53
2018-12-19T04:28:32.706Z,6.20
2018-12-19T04:31:00.115Z,6.55
2018-12-19T04:33:27.806Z,7.57
2018-12-19T04:35:55.257Z,6.05
2018-12-19T04:38:22.983Z,6.70
2018-12-19T04:40:51.080Z,6.60
2018-12-19T04:43:18.598Z,6.32
2018-12-19T04:45:46.175Z,5.30
2018-12-19T04:48:13.588Z,6.43
2018-12-19T04:50:40.998Z,7.37
2018-12-19T04:53:08.396Z,6.82
2018-12-19T04:55:36.463Z,6.97
2018-12-19T04:58:03.870Z,7.20
2018-12-19T05:00:31.288Z,6.20
2018-12-19T05:02:58.716Z,6.72
2018-12-19T05:05:26.110Z,7.32
2018-12-19T05:07:53.548Z,6.30
2018-12-19T05:10:20.947Z,8.00
2018-12-19T05:12:48.359Z,6.87
2018-12-19T05:15:15.811Z,7.82
2018-12-19T05:17:43.847Z,5.65
2018-12-19T05:20:11.262Z,6.70
2018-12-19T05:22:38.661Z,5.97
2018-12-19T05:25:10.845Z,5.68
2018-12-19T05:27:38.250Z,5.78
2018-12-19T05:30:05.749Z,6.62
2018-12-19T05:32:33.255Z,5.85
2018-12-19T05:35:00.685Z,6.20
2018-12-19T05:37:28.103Z,7.28
2018-12-19T05:39:55.511Z,8.35
2018-12-19T05:42:22.922Z,7.03
2018-12-19T05:44:50.949Z,8.02
2018-12-19T05:47:18.359Z,7.25
2018-12-19T05:49:45.798Z,6.82
2018-12-19T05:52:13.510Z,7.28
2018-12-19T05:54:40.912Z,6.62
2018-12-19T05:57:08.424Z,6.10
2018-12-19T05:59:35.808Z,6.87
2018-12-19T06:02:03.281Z,7.35
2018-12-19T06:04:30.673Z,6.95
2018-12-19T06:06:58.114Z,7.03
2018-12-19T06:09:25.569Z,7.90
2018-12-19T06:11:53.757Z,7.57
2018-12-19T06:14:21.216Z,8.07
2018-12-19T06:16:48.651Z,7.32
2018-12-19T06:19:16.097Z,7.87
2018-12-19T06:21:43.869Z,8.40
2018-12-19T06:24:11.273Z,6.95
2018-12-19T06:26:38.690Z,5.57
2018-12-19T06:29:06.113Z,6.43
2018-12-19T06:31:34.110Z,7.57
2018-12-19T06:34:01.512Z,5.53
2018-12-19T06:36:28.906Z,9.68
2018-12-19T06:38:56.861Z,7.78
2018-12-19T06:41:24.290Z,6.53
2018-12-19T06:43:51.700Z,6.30
2018-12-19T06:46:19.143Z,6.55
2018-12-19T06:48:46.553Z,7.75
2018-12-19T06:51:14.502Z,7.28
2018-12-19T06:53:41.895Z,6.75
2018-12-19T06:56:09.520Z,6.43
2018-12-19T06:58:36.903Z,7.53
2018-12-19T07:36:09.515Z,2.85
2018-12-19T07:48:27.321Z,4.50
2018-12-19T07:55:48.694Z,4.35
2018-12-19T08:00:43.154Z,3.58
2018-12-19T08:03:10.548Z,5.37
2018-12-19T08:05:38.030Z,3.15
2018-12-19T08:10:32.362Z,2.65
2018-12-19T08:12:59.775Z,3.30
2018-12-19T08:15:27.180Z,3.92
2018-12-19T08:17:54.782Z,4.25
2018-12-19T08:20:22.224Z,4.60
2018-12-19T08:22:49.641Z,5.70
2018-12-19T08:25:17.102Z,5.70
2018-12-19T08:32:38.456Z,5.72
2018-12-19T08:35:05.883Z,5.90
2018-12-19T08:37:33.478Z,9.43
2018-12-19T08:40:00.875Z,7.85
2018-12-19T08:42:28.309Z,7.80
2018-12-19T08:44:55.726Z,8.63
2018-12-19T08:47:23.714Z,7.15
2018-12-19T08:49:51.093Z,8.90
2018-12-19T08:52:18.513Z,8.60
2018-12-19T08:54:45.916Z,7.60
2018-12-19T08:57:13.388Z,8.77
2018-12-19T08:59:40.878Z,7.75
2018-12-19T09:02:08.286Z,9.57
2018-12-19T09:04:35.689Z,7.28
2018-12-19T09:07:03.084Z,8.90
2018-12-19T09:09:31.824Z,7.85
2018-12-19T09:11:57.888Z,9.10
2018-12-19T09:14:25.314Z,6.85
2018-12-19T09:16:52.823Z,7.10
2018-12-19T09:19:20.274Z,8.50
2018-12-19T09:21:47.681Z,6.87
2018-12-19T09:24:15.103Z,8.55
2018-12-19T09:29:09.458Z,8.68
2018-12-19T09:34:03.882Z,8.38
2018-12-19T09:36:32.145Z,7.12
2018-12-19T09:41:26.486Z,7.93
2018-12-19T09:43:53.878Z,11.90
2018-12-19T09:46:21.313Z,10.25
2018-12-19T09:48:48.718Z,8.63
2018-12-19T09:51:16.207Z,8.70
2018-12-19T09:53:43.639Z,9.45
2018-12-19T09:56:11.037Z,9.20
2018-12-19T09:58:38.545Z,8.70
2018-12-19T10:01:06.046Z,10.05
2018-12-19T10:03:33.458Z,8.50
2018-12-19T10:06:00.888Z,9.77
2018-12-19T10:08:28.343Z,9.60
2018-12-19T10:10:55.829Z,9.18
2018-12-19T10:13:23.242Z,8.73
2018-12-19T10:18:17.636Z,9.30
2018-12-19T10:20:45.067Z,8.20
2018-12-19T10:23:12.463Z,11.50
2018-12-19T10:28:13.658Z,12.37
2018-12-19T10:30:47.721Z,10.30
2018-12-19T10:33:15.185Z,10.98
2018-12-19T10:35:42.660Z,9.73
2018-12-19T10:38:10.070Z,6.30
2018-12-19T10:40:37.495Z,5.68
2018-12-19T10:43:04.951Z,3.55
2018-12-19T10:45:32.393Z,3.42
2018-12-19T10:47:59.807Z,3.30
2018-12-19T10:50:27.276Z,3.12
2018-12-19T10:52:54.705Z,3.25
2018-12-19T10:55:22.092Z,3.45
2018-12-19T10:57:49.573Z,3.10
2018-12-19T11:00:22.455Z,4.25
2018-12-19T11:02:49.863Z,3.35
2018-12-19T11:05:17.327Z,4.30
2018-12-19T11:07:44.756Z,3.92
2018-12-19T11:10:12.175Z,4.03
2018-12-19T11:12:39.604Z,2.53
2018-12-19T11:15:07.058Z,3.80
2018-12-19T11:17:34.469Z,3.10
2018-12-19T11:20:01.867Z,3.90
2018-12-19T11:22:29.553Z,4.25
2018-12-19T11:24:56.960Z,3.42
2018-12-19T11:27:24.459Z,3.20
2018-12-19T11:29:51.868Z,3.70
2018-12-19T11:32:19.263Z,3.30
2018-12-19T11:34:46.729Z,3.55
2018-12-19T11:37:14.142Z,2.75
2018-12-19T11:39:41.593Z,4.80
2018-12-19T11:42:09.001Z,3.62
2018-12-19T11:44:36.444Z,3.05
2018-12-19T11:47:03.876Z,3.90
2018-12-19T11:49:31.298Z,3.17
2018-12-19T11:51:58.744Z,4.07
2018-12-19T11:54:26.179Z,4.57
2018-12-19T11:56:53.578Z,2.87
2018-12-19T11:59:21.201Z,3.05
2018-12-19T12:01:48.624Z,4.53
2018-12-19T12:04:16.011Z,3.45
2018-12-19T12:06:43.476Z,2.35
2018-12-19T12:09:10.884Z,4.87
2018-12-19T12:11:38.351Z,3.00
2018-12-19T12:14:05.761Z,4.77
2018-12-19T12:16:33.196Z,5.30
2018-12-19T12:19:00.601Z,4.00
2018-12-19T12:21:28.049Z,5.33
2018-12-19T12:23:55.459Z,6.68
2018-12-19T12:26:22.960Z,4.65
2018-12-19T12:28:50.360Z,4.78
2018-12-19T12:31:17.776Z,5.80
2018-12-19T12:33:45.173Z,5.82
2018-12-19T12:36:12.620Z,6.80
2018-12-19T12:38:40.031Z,6.67
2018-12-19T12:41:07.421Z,6.43
2018-12-19T12:43:34.874Z,6.75
2018-12-19T12:46:02.308Z,4.90
2018-12-19T12:48:29.758Z,5.60
2018-12-19T12:50:57.175Z,6.75
2018-12-19T12:53:24.675Z,8.75
2018-12-19T12:55:52.068Z,6.65
2018-12-19T12:58:19.517Z,8.67
2018-12-19T13:00:46.922Z,8.13
2018-12-19T13:03:14.369Z,7.75
2018-12-19T13:05:41.772Z,8.88
2018-12-19T13:08:09.210Z,8.88
2018-12-19T13:10:36.644Z,8.82
2018-12-19T13:13:04.124Z,8.77
2018-12-19T13:15:38.025Z,7.25
2018-12-19T13:18:05.437Z,7.23
2018-12-19T13:20:32.865Z,9.57
2018-12-19T13:23:00.275Z,7.35
2018-12-19T13:25:27.683Z,8.00
2018-12-19T13:27:55.086Z,8.10
2018-12-19T13:30:22.477Z,6.82
2018-12-19T13:32:49.962Z,8.05
2018-12-19T13:35:17.368Z,8.75
2018-12-19T13:37:44.809Z,7.03
2018-12-19T13:40:12.216Z,6.68
2018-12-19T13:42:39.728Z,5.70
2018-12-19T13:45:07.202Z,5.87
2018-12-19T13:47:34.636Z,6.95
2018-12-19T13:50:02.067Z,5.15
2018-12-19T13:52:29.487Z,5.60
2018-12-19T13:54:56.905Z,5.78
2018-12-19T13:57:24.303Z,5.05
2018-12-19T13:59:51.715Z,4.22
2018-12-19T14:02:19.183Z,4.28
2018-12-19T14:04:46.629Z,3.70
2018-12-19T14:07:14.234Z,4.20
2018-12-19T14:09:41.689Z,4.00
2018-12-19T14:12:12.297Z,2.95
2018-12-19T14:14:36.572Z,2.10
2018-12-19T14:17:03.959Z,1.95
2018-12-19T14:19:31.422Z,1.65
2018-12-19T14:21:58.851Z,2.20
2018-12-19T14:24:26.343Z,1.62
2018-12-19T14:26:53.808Z,0.90
2018-12-19T14:29:21.864Z,1.25
2018-12-19T14:31:49.268Z,0.68
2018-12-19T14:34:16.693Z,1.77
2018-12-19T14:36:44.174Z,2.28
2018-12-19T14:39:11.536Z,1.70
2018-12-19T14:41:38.963Z,1.85
2018-12-19T14:44:06.391Z,2.25
2018-12-19T14:46:33.828Z,2.17
2018-12-19T14:49:01.250Z,1.75
2018-12-19T14:51:28.657Z,1.80
2018-12-19T14:53:56.122Z,1.30
2018-12-19T14:56:23.529Z,1.85
2018-12-19T14:58:50.935Z,0.90
2018-12-19T15:01:18.348Z,1.35
2018-12-19T15:03:45.847Z,1.60
2018-12-19T15:06:13.341Z,1.67
2018-12-19T15:08:40.790Z,1.60
2018-12-19T15:11:08.216Z,2.35
2018-12-19T15:13:35.653Z,1.75
2018-12-19T15:16:03.056Z,1.90
2018-12-19T15:18:30.468Z,1.25
2018-12-19T15:20:57.870Z,2.00
2018-12-19T15:23:25.282Z,1.40
2018-12-19T15:25:52.679Z,2.47
2018-12-19T15:28:20.073Z,2.83
2018-12-19T15:30:47.472Z,2.00
2018-12-19T15:33:14.891Z,2.25
2018-12-19T15:35:42.297Z,2.47
2018-12-19T15:38:09.943Z,4.25
2018-12-19T15:40:37.359Z,3.00
2018-12-19T15:43:04.872Z,2.80
2018-12-19T15:45:32.285Z,4.82
2018-12-19T15:47:59.682Z,3.55
2018-12-19T15:50:27.199Z,3.20
2018-12-19T15:52:54.620Z,2.80
2018-12-19T15:55:22.071Z,1.90
2018-12-19T15:57:49.498Z,2.30
2018-12-19T16:00:16.926Z,3.12
2018-12-19T16:02:44.331Z,2.10
2018-12-19T16:05:11.738Z,2.55
2018-12-19T16:07:39.155Z,1.50
2018-12-19T16:10:06.556Z,1.75
2018-12-19T16:12:39.219Z,2.20
2018-12-19T16:15:01.371Z,1.80
2018-12-19T16:17:28.803Z,2.08
2018-12-19T16:19:56.482Z,3.25
2018-12-19T16:22:24.122Z,2.08
2018-12-19T16:24:51.523Z,1.62
2018-12-19T16:27:18.961Z,1.30
2018-12-19T16:29:46.421Z,1.40
2018-12-19T16:32:13.819Z,1.83
2018-12-19T16:34:41.257Z,1.58
2018-12-19T16:37:08.695Z,1.65
2018-12-19T16:39:37.138Z,1.60
2018-12-19T16:42:04.611Z,2.08
2018-12-19T16:44:32.004Z,1.40
2018-12-19T16:46:59.415Z,1.52
2018-12-19T16:49:26.947Z,1.80
2018-12-19T16:51:54.354Z,1.62
2018-12-19T16:54:26.685Z,1.83
2018-12-19T16:56:54.114Z,1.30
2018-12-19T16:59:21.590Z,1.90
2018-12-19T17:01:49.014Z,1.90
2018-12-19T17:04:16.480Z,1.45
2018-12-19T17:06:44.011Z,3.05
2018-12-19T17:09:11.488Z,1.87
2018-12-19T17:11:38.985Z,1.73
2018-12-19T17:14:06.558Z,2.70
2018-12-19T17:16:33.957Z,2.72
2018-12-19T17:19:01.443Z,1.90
2018-12-19T17:21:28.883Z,1.70
2018-12-19T17:23:56.296Z,1.98
2018-12-19T17:26:23.681Z,1.62
2018-12-19T17:28:51.105Z,1.67
2018-12-19T17:31:18.586Z,1.52
2018-12-19T17:33:45.980Z,2.22
2018-12-19T17:36:13.476Z,1.75
2018-12-19T17:38:40.874Z,1.92
2018-12-19T17:41:08.305Z,1.85
2018-12-19T17:43:35.719Z,2.17
2018-12-19T17:46:03.135Z,2.45
2018-12-19T17:48:30.541Z,1.27
2018-12-19T17:50:57.954Z,1.60
2018-12-19T17:53:25.361Z,2.15
2018-12-19T17:55:52.759Z,1.92
2018-12-19T17:58:20.209Z,1.60
2018-12-19T18:00:47.647Z,2.20
2018-12-19T18:03:15.060Z,1.80
2018-12-19T18:05:42.457Z,1.62
2018-12-19T18:08:09.852Z,1.73
2018-12-19T18:10:37.324Z,1.80
2018-12-19T18:13:06.342Z,1.67
2018-12-19T18:15:32.616Z,2.33
2018-12-19T18:18:00.031Z,1.92
2018-12-19T18:20:27.427Z,3.25
2018-12-19T18:22:54.832Z,2.40
2018-12-19T18:25:22.296Z,2.67
2018-12-19T18:27:49.752Z,3.70
2018-12-19T18:30:17.179Z,1.83
2018-12-19T18:32:44.641Z,2.00
2018-12-19T18:35:12.231Z,2.42
2018-12-19T18:37:39.634Z,2.08
2018-12-19T18:40:07.162Z,3.55
2018-12-19T18:42:34.560Z,2.87
2018-12-19T18:45:01.996Z,3.17
2018-12-19T18:47:29.407Z,3.92
2018-12-19T18:49:57.058Z,2.70
2018-12-19T18:52:24.566Z,2.78
2018-12-19T18:54:51.965Z,2.75
2018-12-19T18:57:19.358Z,4.28
2018-12-19T18:59:46.812Z,2.90
2018-12-19T19:02:14.234Z,4.15
2018-12-19T19:04:41.699Z,3.65
2018-12-19T19:07:09.109Z,3.95
2018-12-19T19:09:36.596Z,4.30
2018-12-19T19:12:04.061Z,3.40
2018-12-19T19:14:31.515Z,3.42
2018-12-19T19:16:58.926Z,3.95
2018-12-19T19:19:26.395Z,4.12
2018-12-19T19:21:53.987Z,3.60
2018-12-19T19:24:21.514Z,3.15
2018-12-19T19:26:49.090Z,3.47
2018-12-19T19:29:16.582Z,3.37
2018-12-19T19:31:43.985Z,5.18
2018-12-19T19:34:11.469Z,3.75
2018-12-19T19:36:39.149Z,3.92
2018-12-19T19:39:06.594Z,5.97
2018-12-19T19:41:34.022Z,8.48
2018-12-19T19:44:01.406Z,7.05
2018-12-19T19:46:28.821Z,4.40
2018-12-19T19:48:56.257Z,4.50
2018-12-19T19:51:23.659Z,4.53
2018-12-19T19:53:51.193Z,5.12
2018-12-19T19:56:18.652Z,4.05
2018-12-19T19:58:46.063Z,3.45
2018-12-19T20:01:13.493Z,3.45
2018-12-19T20:03:42.588Z,5.37
2018-12-19T20:06:10.374Z,5.07
2018-12-19T20:08:37.813Z,5.72
2018-12-19T20:11:05.244Z,6.40
2018-12-19T20:13:33.463Z,7.50
2018-12-19T20:16:00.137Z,7.57
2018-12-19T20:18:27.552Z,6.75
2018-12-19T20:20:54.959Z,7.37
2018-12-19T20:23:22.466Z,6.07
2018-12-19T20:25:49.912Z,11.30
2018-12-19T20:28:17.316Z,7.00
2018-12-19T20:30:44.775Z,7.43
2018-12-19T20:33:12.252Z,5.93
2018-12-19T20:35:39.689Z,7.60
2018-12-19T20:38:07.207Z,7.05
2018-12-19T20:40:34.626Z,6.28
2018-12-19T20:43:06.532Z,6.90
2018-12-19T20:45:29.516Z,7.05
2018-12-19T20:47:56.988Z,8.23
2018-12-19T20:50:24.424Z,6.80
2018-12-19T20:52:51.976Z,8.73
2018-12-19T20:55:19.377Z,8.30
2018-12-19T20:57:46.829Z,7.65
2018-12-19T21:00:14.272Z,7.22
2018-12-19T21:02:41.915Z,8.73
2018-12-19T21:05:09.333Z,6.87
2018-12-19T21:07:36.741Z,7.55
2018-12-19T21:10:04.230Z,7.22
2018-12-19T21:12:31.636Z,7.30
2018-12-19T21:14:59.895Z,7.53
2018-12-19T21:17:32.919Z,7.90
2018-12-19T21:20:00.402Z,7.57
2018-12-19T21:22:27.823Z,6.93
2018-12-19T21:24:55.233Z,6.87
2018-12-19T21:27:22.685Z,7.00
2018-12-19T21:29:50.214Z,7.50
2018-12-19T21:32:17.629Z,5.95
2018-12-19T21:34:45.324Z,6.55
2018-12-19T21:37:12.755Z,6.18
2018-12-19T21:39:40.221Z,5.40
2018-12-19T21:42:07.711Z,4.50
2018-12-19T21:44:35.131Z,5.53
2018-12-19T21:47:02.591Z,5.93
2018-12-19T21:49:30.015Z,7.20
2018-12-19T21:51:57.419Z,4.65
2018-12-19T21:54:24.973Z,4.93
2018-12-19T21:56:52.375Z,6.07
2018-12-19T21:59:19.819Z,3.78
2018-12-19T22:01:47.268Z,4.30
2018-12-19T22:04:14.742Z,5.15
2018-12-19T22:06:42.276Z,4.87
2018-12-19T22:09:09.707Z,5.47
2018-12-19T22:11:38.280Z,6.20
2018-12-19T22:14:05.690Z,3.45
2018-12-19T22:16:38.717Z,3.90
2018-12-19T22:19:06.128Z,4.40
2018-12-19T22:21:33.555Z,6.00
2018-12-19T22:24:00.983Z,5.22
2018-12-19T22:26:28.370Z,5.35
2018-12-19T22:28:57.015Z,4.95
2018-12-19T22:31:24.418Z,5.35
2018-12-19T22:33:51.911Z,5.40
2018-12-19T22:36:19.321Z,7.50
2018-12-19T22:38:46.937Z,6.22
2018-12-19T22:41:14.360Z,5.93
2018-12-19T22:43:41.777Z,5.60
2018-12-19T22:46:09.216Z,5.43
2018-12-19T22:48:36.683Z,4.75
2018-12-19T22:51:04.143Z,6.37
2018-12-19T22:53:31.547Z,4.75
2018-12-19T22:55:59.017Z,5.72
2018-12-19T22:58:26.503Z,6.45
2018-12-19T23:00:59.394Z,5.90
2018-12-19T23:03:45.568Z,6.07
2018-12-19T23:06:13.012Z,4.22
2018-12-19T23:08:40.433Z,4.87
2018-12-19T23:11:07.870Z,5.35
2018-12-19T23:13:35.267Z,5.53
2018-12-19T23:16:02.749Z,6.57
2018-12-19T23:18:30.150Z,4.57
2018-12-19T23:20:57.540Z,5.90
2018-12-19T23:23:24.943Z,5.62
2018-12-19T23:25:52.378Z,6.40
2018-12-19T23:28:19.912Z,5.95
2018-12-19T23:30:47.248Z,5.95
2018-12-19T23:33:14.747Z,5.45
2018-12-19T23:35:42.085Z,7.22
2018-12-19T23:38:09.486Z,6.47
2018-12-19T23:40:36.879Z,6.07
2018-12-19T23:43:04.358Z,6.07
2018-12-19T23:45:31.722Z,6.82
2018-12-19T23:47:59.295Z,6.60
2018-12-19T23:50:26.726Z,6.60
2018-12-19T23:52:54.022Z,6.10
2018-12-19T23:55:21.537Z,6.50
2018-12-19T23:57:49.025Z,6.40
